createdAt,value
2023-03-02T00:02:02.636Z,100.00
2023-03-02T00:04:40.821Z,100.00
2023-03-02T00:07:13.844Z,100.00
2023-03-02T00:09:45.436Z,100.00
2023-03-02T00:12:16.711Z,100.00
2023-03-02T00:14:50.064Z,100.00
2023-03-02T00:17:28.003Z,100.00
2023-03-02T00:20:10.781Z,100.00
2023-03-02T00:22:41.619Z,100.00
2023-03-02T00:25:13.713Z,100.00
2023-03-02T00:27:44.741Z,100.00
2023-03-02T00:30:20.027Z,100.00
2023-03-02T00:32:50.473Z,100.00
2023-03-02T00:35:23.595Z,100.00
2023-03-02T00:37:54.079Z,100.00
2023-03-02T00:40:24.400Z,100.00
2023-03-02T00:42:54.750Z,100.00
2023-03-02T00:45:29.290Z,100.00
2023-03-02T00:47:59.682Z,100.00
2023-03-02T00:50:32.392Z,100.00
2023-03-02T00:53:03.525Z,100.00
2023-03-02T00:55:33.815Z,100.00
2023-03-02T00:58:04.472Z,100.00
2023-03-02T01:00:36.223Z,100.00
2023-03-02T01:03:10.009Z,100.00
2023-03-02T01:05:43.761Z,100.00
2023-03-02T01:08:14.348Z,100.00
2023-03-02T01:10:44.665Z,100.00
2023-03-02T01:13:14.751Z,100.00
2023-03-02T01:15:46.755Z,100.00
2023-03-02T01:18:19.293Z,100.00
2023-03-02T01:20:52.474Z,100.00
2023-03-02T01:23:22.675Z,100.00
2023-03-02T01:25:52.745Z,100.00
2023-03-02T01:28:24.258Z,100.00
2023-03-02T01:30:58.330Z,100.00
2023-03-02T01:33:33.547Z,100.00
2023-03-02T01:36:07.302Z,100.00
2023-03-02T01:38:39.764Z,100.00
2023-03-02T01:41:11.822Z,100.00
2023-03-02T01:43:42.872Z,100.00
2023-03-02T01:46:17.750Z,100.00
2023-03-02T01:48:55.780Z,100.00
2023-03-02T01:51:46.420Z,100.00
2023-03-02T01:54:23.578Z,100.00
2023-03-02T01:57:03.425Z,100.00
2023-03-02T01:59:36.185Z,100.00
2023-03-02T02:02:09.824Z,100.00
2023-03-02T02:04:43.663Z,100.00
2023-03-02T02:07:20.034Z,100.00
2023-03-02T02:09:57.121Z,100.00
2023-03-02T02:12:27.797Z,100.00
2023-03-02T02:15:00.932Z,100.00
2023-03-02T02:17:33.243Z,100.00
2023-03-02T02:20:10.514Z,100.00
2023-03-02T02:23:00.412Z,100.00
2023-03-02T02:25:48.007Z,100.00
2023-03-02T02:28:25.560Z,100.00
2023-03-02T02:31:04.021Z,100.00
2023-03-02T02:33:36.683Z,100.00
2023-03-02T02:36:13.248Z,100.00
2023-03-02T02:38:46.785Z,100.00
2023-03-02T02:41:24.128Z,100.00
2023-03-02T02:44:02.330Z,100.00
2023-03-02T02:46:33.278Z,100.00
2023-03-02T02:49:05.122Z,100.00
2023-03-02T02:51:36.638Z,100.00
2023-03-02T02:54:07.548Z,100.00
2023-03-02T02:56:41.969Z,100.00
2023-03-02T02:59:19.530Z,100.00
2023-03-02T03:01:50.558Z,100.00
2023-03-02T03:04:24.118Z,100.00
2023-03-02T03:06:57.230Z,100.00
2023-03-02T03:09:27.748Z,100.00
2023-03-02T03:12:01.261Z,100.00
2023-03-02T03:14:40.031Z,100.00
2023-03-02T03:17:14.863Z,100.00
2023-03-02T03:19:52.623Z,100.00
2023-03-02T03:22:23.971Z,100.00
2023-03-02T03:24:54.147Z,100.00
2023-03-02T03:27:24.776Z,100.00
2023-03-02T03:29:57.914Z,100.00
2023-03-02T03:32:28.116Z,100.00
2023-03-02T03:34:59.251Z,100.00
2023-03-02T03:37:32.919Z,100.00
2023-03-02T03:40:03.693Z,100.00
2023-03-02T03:42:33.844Z,100.00
2023-03-02T03:45:09.022Z,100.00
2023-03-02T03:47:40.893Z,100.00
2023-03-02T03:50:14.130Z,100.00
2023-03-02T03:52:45.143Z,100.00
2023-03-02T03:55:23.727Z,100.00
2023-03-02T03:57:54.029Z,100.00
2023-03-02T04:00:27.631Z,100.00
2023-03-02T04:03:04.939Z,100.00
2023-03-02T04:05:36.481Z,100.00
2023-03-02T04:08:09.150Z,100.00
2023-03-02T04:10:40.179Z,100.00
2023-03-02T04:13:10.714Z,100.00
2023-03-02T04:15:46.973Z,100.00
2023-03-02T04:18:17.639Z,100.00
2023-03-02T04:20:48.016Z,100.00
2023-03-02T04:23:18.174Z,100.00
2023-03-02T04:25:49.528Z,100.00
2023-03-02T04:28:23.054Z,100.00
2023-03-02T04:30:58.705Z,100.00
2023-03-02T04:33:29.036Z,100.00
2023-03-02T04:36:00.018Z,100.00
2023-03-02T04:38:30.878Z,100.00
2023-03-02T04:41:02.356Z,100.00
2023-03-02T04:43:32.471Z,100.00
2023-03-02T04:46:05.345Z,100.00
2023-03-02T04:48:35.532Z,100.00
2023-03-02T04:51:05.902Z,100.00
2023-03-02T04:53:36.077Z,100.00
2023-03-02T04:56:06.971Z,100.00
2023-03-02T04:58:37.221Z,100.00
2023-03-02T05:01:10.286Z,100.00
2023-03-02T05:03:40.541Z,100.00
2023-03-02T05:06:11.205Z,100.00
2023-03-02T05:08:41.725Z,100.00
2023-03-02T05:11:22.293Z,100.00
2023-03-02T05:13:53.420Z,100.00
2023-03-02T05:16:29.406Z,100.00
2023-03-02T05:19:00.434Z,100.00
2023-03-02T05:21:31.512Z,100.00
2023-03-02T05:24:03.706Z,100.00
2023-03-02T05:26:34.643Z,98.81
2023-03-02T05:29:05.087Z,98.32
2023-03-02T05:31:40.926Z,94.50
2023-03-02T05:34:13.909Z,95.78
2023-03-02T05:36:44.396Z,96.35
2023-03-02T05:39:17.044Z,93.87
2023-03-02T05:41:47.548Z,95.03
2023-03-02T05:44:17.996Z,94.07
2023-03-02T05:46:51.074Z,93.04
2023-03-02T05:49:21.323Z,95.04
2023-03-02T05:51:51.486Z,93.64
2023-03-02T05:54:21.684Z,93.70
2023-03-02T05:56:52.289Z,91.41
2023-03-02T05:59:22.737Z,93.04
2023-03-02T06:01:59.130Z,92.91
2023-03-02T06:04:29.791Z,91.88
2023-03-02T06:06:59.945Z,92.52
2023-03-02T06:09:30.224Z,90.95
2023-03-02T06:12:00.499Z,89.50
2023-03-02T06:14:31.657Z,87.94
2023-03-02T06:17:04.694Z,86.12
2023-03-02T06:19:34.843Z,84.74
2023-03-02T06:22:05.649Z,83.70
2023-03-02T06:24:35.892Z,82.98
2023-03-02T06:27:05.984Z,82.86
2023-03-02T06:29:36.217Z,81.30
2023-03-02T06:32:10.688Z,80.83
2023-03-02T06:34:41.056Z,80.96
2023-03-02T06:37:11.378Z,81.15
2023-03-02T06:39:41.886Z,81.25
2023-03-02T06:42:12.325Z,80.10
2023-03-02T06:44:43.041Z,78.21
2023-03-02T06:47:16.559Z,79.18
2023-03-02T06:49:47.050Z,77.43
2023-03-02T06:52:17.189Z,77.77
2023-03-02T06:54:47.245Z,76.90
2023-03-02T06:57:17.483Z,77.05
2023-03-02T06:59:50.797Z,76.93
2023-03-02T07:02:24.431Z,76.05
2023-03-02T07:04:54.676Z,74.57
2023-03-02T07:07:25.034Z,75.18
2023-03-02T07:09:55.103Z,75.42
2023-03-02T07:12:25.427Z,74.98
2023-03-02T07:14:55.618Z,73.56
2023-03-02T07:17:32.200Z,73.20
2023-03-02T07:20:02.623Z,74.31
2023-03-02T07:22:32.858Z,73.38
2023-03-02T07:25:03.339Z,72.81
2023-03-02T07:27:33.586Z,72.61
2023-03-02T07:30:03.885Z,73.81
2023-03-02T07:32:36.765Z,73.92
2023-03-02T07:35:07.734Z,76.30
2023-03-02T07:37:38.137Z,75.08
2023-03-02T07:40:11.574Z,75.32
2023-03-02T07:42:42.376Z,76.25
2023-03-02T07:45:17.008Z,79.42
2023-03-02T07:47:50.251Z,78.90
2023-03-02T07:50:20.745Z,79.82
2023-03-02T07:52:50.854Z,81.01
2023-03-02T07:55:21.340Z,79.31
2023-03-02T07:57:52.097Z,84.73
2023-03-02T08:00:24.167Z,82.07
2023-03-02T08:02:57.371Z,84.37
2023-03-02T08:05:28.070Z,79.82
2023-03-02T08:07:58.326Z,84.37
2023-03-02T08:10:28.750Z,79.35
2023-03-02T08:12:59.154Z,79.30
2023-03-02T08:15:29.942Z,80.79
2023-03-02T08:18:04.057Z,80.71
2023-03-02T08:20:34.360Z,80.40
2023-03-02T08:23:04.945Z,82.14
2023-03-02T08:25:35.286Z,81.40
2023-03-02T08:28:05.411Z,81.66
2023-03-02T08:30:37.495Z,83.15
2023-03-02T08:33:10.647Z,82.62
2023-03-02T08:35:41.223Z,84.78
2023-03-02T08:38:14.454Z,83.26
2023-03-02T08:40:44.892Z,82.87
2023-03-02T08:43:15.223Z,82.05
2023-03-02T08:45:45.551Z,78.37
2023-03-02T08:48:18.666Z,79.46
2023-03-02T08:50:56.655Z,78.16
2023-03-02T08:53:27.202Z,79.79
2023-03-02T08:55:58.574Z,79.27
2023-03-02T08:58:37.716Z,78.01
2023-03-02T09:01:10.620Z,78.14
2023-03-02T09:03:44.902Z,78.72
2023-03-02T09:06:18.979Z,74.98
2023-03-02T09:08:51.410Z,75.45
2023-03-02T09:11:22.451Z,75.92
2023-03-02T09:13:54.146Z,75.70
2023-03-02T09:16:27.429Z,76.58
2023-03-02T09:19:02.134Z,77.38
2023-03-02T09:21:32.980Z,74.69
2023-03-02T09:24:06.003Z,73.97
2023-03-02T09:26:38.624Z,73.58
2023-03-02T09:29:09.701Z,72.27
2023-03-02T09:31:40.002Z,71.78
2023-03-02T09:34:12.744Z,71.72
2023-03-02T09:36:43.960Z,71.08
2023-03-02T09:39:14.500Z,71.28
2023-03-02T09:42:10.897Z,73.84
2023-03-02T09:45:16.465Z,71.63
2023-03-02T09:47:53.887Z,72.96
2023-03-02T09:50:36.287Z,72.32
2023-03-02T09:53:32.027Z,71.65
2023-03-02T09:56:03.402Z,71.29
2023-03-02T09:58:39.653Z,70.70
2023-03-02T10:01:16.927Z,72.30
2023-03-02T10:03:59.731Z,70.51
2023-03-02T10:06:37.554Z,69.92
2023-03-02T10:09:08.166Z,68.67
2023-03-02T10:11:56.183Z,70.59
2023-03-02T10:14:33.231Z,69.38
2023-03-02T10:17:23.825Z,70.37
2023-03-02T10:20:00.891Z,69.79
2023-03-02T10:22:44.833Z,70.32
2023-03-02T10:25:39.296Z,69.14
2023-03-02T10:28:19.497Z,67.60
2023-03-02T10:30:56.488Z,69.50
2023-03-02T10:33:31.203Z,68.84
2023-03-02T10:36:01.480Z,68.69
2023-03-02T10:38:38.241Z,68.29
2023-03-02T10:41:16.758Z,70.62
2023-03-02T10:43:53.446Z,69.33
2023-03-02T10:46:27.065Z,69.61
2023-03-02T10:49:03.350Z,69.70
2023-03-02T10:51:35.719Z,69.72
2023-03-02T10:54:15.462Z,69.95
2023-03-02T10:56:47.366Z,72.36
2023-03-02T10:59:41.327Z,71.57
2023-03-02T11:02:23.839Z,71.48
2023-03-02T11:04:58.814Z,70.94
2023-03-02T11:07:33.274Z,71.29
2023-03-02T11:10:08.925Z,75.24
2023-03-02T11:12:40.187Z,73.99
2023-03-02T11:15:27.716Z,75.00
2023-03-02T11:18:04.129Z,74.31
2023-03-02T11:20:38.424Z,70.97
2023-03-02T11:23:20.192Z,69.73
2023-03-02T11:25:58.489Z,73.38
2023-03-02T11:28:52.242Z,69.79
2023-03-02T11:31:33.562Z,72.02
2023-03-02T11:34:27.875Z,72.68
2023-03-02T11:37:06.629Z,71.72
2023-03-02T11:39:55.841Z,73.12
2023-03-02T11:42:34.844Z,73.06
2023-03-02T11:45:19.715Z,77.32
2023-03-02T11:48:02.492Z,77.07
2023-03-02T11:50:38.187Z,77.11
2023-03-02T11:53:11.048Z,74.74
2023-03-02T11:55:48.896Z,77.61
2023-03-02T11:58:25.185Z,75.36
2023-03-02T12:00:56.962Z,75.48
2023-03-02T12:03:40.863Z,74.39
2023-03-02T12:06:28.945Z,75.27
2023-03-02T12:09:14.051Z,73.12
2023-03-02T12:11:50.781Z,75.08
2023-03-02T12:14:41.077Z,71.93
2023-03-02T12:17:34.324Z,71.42
2023-03-02T12:20:28.479Z,71.05
2023-03-02T12:23:09.686Z,72.34
2023-03-02T12:25:51.831Z,70.33
2023-03-02T12:28:35.722Z,71.70
2023-03-02T12:31:18.893Z,69.37
2023-03-02T12:33:53.120Z,70.15
2023-03-02T12:36:30.783Z,71.87
2023-03-02T12:39:27.566Z,72.29
2023-03-02T12:42:18.701Z,70.99
2023-03-02T12:45:02.814Z,70.03
2023-03-02T12:47:36.903Z,71.24
2023-03-02T12:50:08.856Z,73.27
2023-03-02T12:52:40.745Z,75.12
2023-03-02T12:55:21.395Z,74.71
2023-03-02T12:57:53.844Z,72.96
2023-03-02T13:00:28.031Z,71.60
2023-03-02T13:03:07.263Z,70.59
2023-03-02T13:05:40.555Z,70.73
2023-03-02T13:08:19.221Z,70.38
2023-03-02T13:10:54.039Z,72.47
2023-03-02T13:13:30.272Z,71.78
2023-03-02T13:16:06.665Z,71.88
2023-03-02T13:18:44.926Z,74.27
2023-03-02T13:21:18.622Z,76.73
2023-03-02T13:23:50.466Z,75.96
2023-03-02T13:26:30.563Z,75.38
2023-03-02T13:29:06.194Z,76.29
2023-03-02T13:31:37.828Z,77.09
2023-03-02T13:34:26.385Z,73.50
2023-03-02T13:36:58.073Z,73.12
2023-03-02T13:39:32.027Z,72.67
2023-03-02T13:42:08.998Z,72.71
2023-03-02T13:44:39.611Z,74.54
2023-03-02T13:47:25.198Z,74.24
2023-03-02T13:50:10.007Z,73.29
2023-03-02T13:52:43.040Z,74.84
2023-03-02T13:55:17.888Z,73.18
2023-03-02T13:57:49.926Z,73.05
2023-03-02T14:00:26.296Z,73.37
2023-03-02T14:02:57.462Z,73.09
2023-03-02T14:05:34.277Z,76.78
2023-03-02T14:08:07.387Z,73.18
2023-03-02T14:10:37.852Z,75.51
2023-03-02T14:13:12.027Z,74.64
2023-03-02T14:15:45.488Z,76.36
2023-03-02T14:18:34.341Z,73.97
2023-03-02T14:21:10.805Z,75.77
2023-03-02T14:23:42.259Z,75.47
2023-03-02T14:26:30.819Z,75.91
2023-03-02T14:29:06.259Z,75.97
2023-03-02T14:31:38.452Z,79.83
2023-03-02T14:34:12.624Z,79.47
2023-03-02T14:36:47.838Z,81.60
2023-03-02T14:39:25.904Z,84.94
2023-03-02T14:41:57.663Z,85.34
2023-03-02T14:44:29.858Z,88.26
2023-03-02T14:47:04.265Z,87.78
2023-03-02T14:49:34.821Z,90.50
2023-03-02T14:52:11.659Z,92.22
2023-03-02T14:54:47.863Z,92.33
2023-03-02T14:57:22.490Z,94.08
2023-03-02T14:59:52.699Z,93.25
2023-03-02T15:02:26.558Z,94.69
2023-03-02T15:04:57.750Z,94.04
2023-03-02T15:07:32.458Z,93.58
2023-03-02T15:10:02.648Z,96.62
2023-03-02T15:12:32.808Z,98.19
2023-03-02T15:15:03.472Z,99.28
2023-03-02T15:17:33.795Z,99.39
2023-03-02T15:20:04.121Z,99.42
2023-03-02T15:22:37.114Z,100.00
2023-03-02T15:25:07.644Z,100.00
2023-03-02T15:27:37.767Z,100.00
2023-03-02T15:30:08.927Z,100.00
2023-03-02T15:32:39.836Z,100.00
2023-03-02T15:35:12.494Z,100.00
2023-03-02T15:37:45.287Z,100.00
2023-03-02T15:40:16.002Z,100.00
2023-03-02T15:42:46.102Z,100.00
2023-03-02T15:45:16.987Z,100.00
2023-03-02T15:47:47.148Z,100.00
2023-03-02T15:50:17.616Z,100.00
2023-03-02T15:52:51.294Z,100.00
2023-03-02T15:55:21.715Z,100.00
2023-03-02T15:57:51.949Z,100.00
2023-03-02T16:00:24.115Z,100.00
2023-03-02T16:02:54.352Z,100.00
2023-03-02T16:05:24.621Z,100.00
2023-03-02T16:07:57.367Z,100.00
2023-03-02T16:10:30.242Z,100.00
2023-03-02T16:13:06.214Z,100.00
2023-03-02T16:15:42.481Z,100.00
2023-03-02T16:18:14.538Z,100.00
2023-03-02T16:20:44.708Z,100.00
2023-03-02T16:23:17.673Z,100.00
2023-03-02T16:25:49.788Z,100.00
2023-03-02T16:28:21.703Z,100.00
2023-03-02T16:30:52.148Z,100.00
2023-03-02T16:33:22.550Z,100.00
2023-03-02T16:35:53.015Z,100.00
2023-03-02T16:38:25.771Z,100.00
2023-03-02T16:40:57.174Z,100.00
2023-03-02T16:43:27.654Z,100.00
2023-03-02T16:45:57.974Z,100.00
2023-03-02T16:48:28.081Z,100.00
2023-03-02T16:50:59.411Z,100.00
2023-03-02T16:53:32.251Z,100.00
2023-03-02T16:56:02.383Z,100.00
2023-03-02T16:58:32.718Z,100.00
2023-03-02T17:01:03.229Z,100.00
2023-03-02T17:03:33.579Z,100.00
2023-03-02T17:06:03.790Z,100.00
2023-03-02T17:08:36.977Z,100.00
2023-03-02T17:11:07.541Z,100.00
2023-03-02T17:13:37.824Z,100.00
2023-03-02T17:16:08.904Z,100.00
2023-03-02T17:18:39.256Z,100.00
2023-03-02T17:21:09.696Z,100.00
2023-03-02T17:23:42.399Z,100.00
2023-03-02T17:26:12.689Z,100.00
2023-03-02T17:28:42.997Z,100.00
2023-03-02T17:31:14.518Z,100.00
2023-03-02T17:33:44.685Z,100.00
2023-03-02T17:36:15.947Z,100.00
2023-03-02T17:38:48.657Z,100.00
2023-03-02T17:41:18.778Z,100.00
2023-03-02T17:43:48.880Z,100.00
2023-03-02T17:46:22.840Z,100.00
2023-03-02T17:48:54.779Z,100.00
2023-03-02T17:51:25.549Z,100.00
2023-03-02T17:53:58.783Z,100.00
2023-03-02T17:56:30.917Z,100.00
2023-03-02T17:59:04.011Z,100.00
2023-03-02T18:01:35.053Z,100.00
2023-03-02T18:04:06.154Z,100.00
2023-03-02T18:06:36.599Z,100.00
2023-03-02T18:09:09.891Z,100.00
2023-03-02T18:11:41.552Z,100.00
2023-03-02T18:14:12.587Z,100.00
2023-03-02T18:16:42.794Z,100.00
2023-03-02T18:19:12.927Z,100.00
2023-03-02T18:21:43.398Z,100.00
2023-03-02T18:24:16.080Z,100.00
2023-03-02T18:26:46.507Z,100.00
2023-03-02T18:29:16.690Z,100.00
2023-03-02T18:31:46.963Z,100.00
2023-03-02T18:34:17.104Z,100.00
2023-03-02T18:36:47.233Z,100.00
2023-03-02T18:39:20.039Z,100.00
2023-03-02T18:41:50.384Z,100.00
2023-03-02T18:44:20.870Z,100.00
2023-03-02T18:46:51.008Z,100.00
2023-03-02T18:49:21.328Z,100.00
2023-03-02T18:51:51.511Z,100.00
2023-03-02T18:54:24.254Z,100.00
2023-03-02T18:56:54.983Z,100.00
2023-03-02T18:59:27.957Z,100.00
2023-03-02T19:02:01.255Z,100.00
2023-03-02T19:04:31.554Z,100.00
2023-03-02T19:07:03.036Z,100.00
2023-03-02T19:09:35.892Z,100.00
2023-03-02T19:12:06.680Z,100.00
2023-03-02T19:14:37.473Z,100.00
2023-03-02T19:17:11.501Z,100.00
2023-03-02T19:19:45.403Z,100.00
2023-03-02T19:22:16.884Z,100.00
2023-03-02T19:24:52.614Z,100.00
2023-03-02T19:27:23.764Z,100.00
2023-03-02T19:30:00.034Z,100.00
2023-03-02T19:32:31.008Z,100.00
2023-03-02T19:35:04.186Z,100.00
2023-03-02T19:37:39.244Z,100.00
2023-03-02T19:40:15.566Z,100.00
2023-03-02T19:42:46.151Z,100.00
2023-03-02T19:45:22.785Z,100.00
2023-03-02T19:47:52.984Z,100.00
2023-03-02T19:50:24.602Z,100.00
2023-03-02T19:52:56.148Z,100.00
2023-03-02T19:55:31.237Z,100.00
2023-03-02T19:58:02.773Z,100.00
2023-03-02T20:00:38.509Z,100.00
2023-03-02T20:03:09.777Z,100.00
2023-03-02T20:05:40.137Z,100.00
2023-03-02T20:08:10.920Z,100.00
2023-03-02T20:10:46.363Z,100.00
2023-03-02T20:13:16.468Z,100.00
2023-03-02T20:15:49.143Z,100.00
2023-03-02T20:18:23.444Z,100.00
2023-03-02T20:20:58.211Z,100.00
2023-03-02T20:23:31.459Z,100.00
2023-03-02T20:26:04.157Z,100.00
2023-03-02T20:28:34.823Z,100.00
2023-03-02T20:31:09.089Z,100.00
2023-03-02T20:33:43.040Z,100.00
2023-03-02T20:36:13.027Z,100.00
2023-03-02T20:38:46.722Z,100.00
2023-03-02T20:41:20.200Z,100.00
2023-03-02T20:43:51.174Z,100.00
2023-03-02T20:46:24.236Z,100.00
2023-03-02T20:48:56.843Z,100.00
2023-03-02T20:51:27.575Z,100.00
2023-03-02T20:53:57.779Z,100.00
2023-03-02T20:56:30.524Z,100.00
2023-03-02T20:59:00.778Z,100.00
2023-03-02T21:01:31.001Z,100.00
2023-03-02T21:04:01.332Z,100.00
2023-03-02T21:06:33.540Z,100.00
2023-03-02T21:09:04.044Z,100.00
2023-03-02T21:11:36.857Z,100.00
2023-03-02T21:14:07.952Z,100.00
2023-03-02T21:16:40.320Z,100.00
2023-03-02T21:19:13.024Z,100.00
2023-03-02T21:21:43.836Z,100.00
2023-03-02T21:24:16.820Z,100.00
2023-03-02T21:26:51.555Z,100.00
2023-03-02T21:29:23.583Z,100.00
2023-03-02T21:31:54.282Z,100.00
2023-03-02T21:34:24.770Z,100.00
2023-03-02T21:36:55.228Z,100.00
2023-03-02T21:39:26.522Z,100.00
2023-03-02T21:42:01.197Z,100.00
2023-03-02T21:44:31.451Z,100.00
2023-03-02T21:47:01.548Z,100.00
2023-03-02T21:49:32.049Z,100.00
2023-03-02T21:52:02.164Z,100.00
2023-03-02T21:54:32.249Z,100.00
2023-03-02T21:57:05.082Z,100.00
2023-03-02T21:59:37.443Z,100.00
2023-03-02T22:02:08.090Z,100.00
2023-03-02T22:04:38.645Z,100.00
2023-03-02T22:07:08.716Z,100.00
2023-03-02T22:09:38.879Z,100.00
2023-03-02T22:12:15.657Z,100.00
2023-03-02T22:14:46.253Z,100.00
2023-03-02T22:17:20.239Z,100.00
2023-03-02T22:19:52.180Z,100.00
2023-03-02T22:22:27.545Z,100.00
2023-03-02T22:24:57.777Z,100.00
2023-03-02T22:27:32.310Z,100.00
2023-03-02T22:30:04.595Z,100.00
2023-03-02T22:32:38.777Z,100.00
2023-03-02T22:35:23.323Z,100.00
2023-03-02T22:37:57.110Z,100.00
2023-03-02T22:40:32.302Z,100.00
2023-03-02T22:43:16.958Z,100.00
2023-03-02T22:45:47.247Z,100.00
2023-03-02T22:48:20.690Z,100.00
2023-03-02T22:50:52.347Z,100.00
2023-03-02T22:53:32.130Z,100.00
2023-03-02T22:56:04.355Z,100.00
2023-03-02T22:58:47.864Z,100.00
2023-03-02T23:01:29.584Z,100.00
2023-03-02T23:04:19.856Z,100.00
2023-03-02T23:06:51.919Z,100.00
2023-03-02T23:09:24.998Z,100.00
2023-03-02T23:11:57.122Z,100.00
2023-03-02T23:14:32.412Z,100.00
2023-03-02T23:17:08.502Z,100.00
2023-03-02T23:19:38.756Z,100.00
2023-03-02T23:22:08.961Z,100.00
2023-03-02T23:24:39.816Z,100.00
2023-03-02T23:27:09.991Z,100.00
2023-03-02T23:29:42.939Z,100.00
2023-03-02T23:32:13.448Z,100.00
2023-03-02T23:34:43.863Z,100.00
2023-03-02T23:37:13.966Z,100.00
2023-03-02T23:39:46.060Z,100.00
2023-03-02T23:42:16.589Z,100.00
2023-03-02T23:44:49.597Z,100.00
2023-03-02T23:47:20.112Z,100.00
2023-03-02T23:49:50.317Z,100.00
2023-03-02T23:52:20.712Z,100.00
2023-03-02T23:54:51.553Z,100.00
2023-03-02T23:57:21.679Z,100.00
2023-03-02T23:59:54.428Z,100.00
